sensor_id;sensor_type;location;lat;lon;timestamp;P1;durP1;ratioP1;P2;durP2;ratioP2
74371;SDS011;62885;51.374;6.170;2022-12-07T00:00:39;13.38;;;6.68;;
74371;SDS011;62885;51.374;6.170;2022-12-07T00:03:04;13.00;;;7.10;;
74371;SDS011;62885;51.374;6.170;2022-12-07T00:05:30;10.93;;;6.33;;
74371;SDS011;62885;51.374;6.170;2022-12-07T00:07:55;10.23;;;6.68;;
74371;SDS011;62885;51.374;6.170;2022-12-07T00:10:20;15.48;;;6.90;;
74371;SDS011;62885;51.374;6.170;2022-12-07T00:12:46;10.35;;;6.38;;
74371;SDS011;62885;51.374;6.170;2022-12-07T00:15:11;14.02;;;6.45;;
74371;SDS011;62885;51.374;6.170;2022-12-07T00:17:36;14.25;;;7.53;;
74371;SDS011;62885;51.374;6.170;2022-12-07T00:20:02;12.77;;;6.83;;
74371;SDS011;62885;51.374;6.170;2022-12-07T00:22:27;14.07;;;6.63;;
74371;SDS011;62885;51.374;6.170;2022-12-07T00:24:53;11.13;;;6.53;;
74371;SDS011;62885;51.374;6.170;2022-12-07T00:27:18;12.90;;;6.35;;
74371;SDS011;62885;51.374;6.170;2022-12-07T00:29:43;13.40;;;6.20;;
74371;SDS011;62885;51.374;6.170;2022-12-07T00:32:08;11.82;;;6.15;;
74371;SDS011;62885;51.374;6.170;2022-12-07T00:34:34;10.60;;;6.40;;
74371;SDS011;62885;51.374;6.170;2022-12-07T00:36:59;14.85;;;6.95;;
74371;SDS011;62885;51.374;6.170;2022-12-07T00:39:25;12.45;;;7.20;;
74371;SDS011;62885;51.374;6.170;2022-12-07T00:41:50;10.13;;;6.53;;
74371;SDS011;62885;51.374;6.170;2022-12-07T00:44:15;13.50;;;7.05;;
74371;SDS011;62885;51.374;6.170;2022-12-07T00:46:41;12.68;;;7.05;;
74371;SDS011;62885;51.374;6.170;2022-12-07T00:49:06;12.57;;;7.22;;
74371;SDS011;62885;51.374;6.170;2022-12-07T00:51:31;14.25;;;7.38;;
74371;SDS011;62885;51.374;6.170;2022-12-07T00:53:57;11.95;;;7.95;;
74371;SDS011;62885;51.374;6.170;2022-12-07T00:56:23;11.50;;;6.97;;
74371;SDS011;62885;51.374;6.170;2022-12-07T00:58:53;12.30;;;6.32;;
74371;SDS011;62885;51.374;6.170;2022-12-07T01:01:21;12.20;;;7.28;;
74371;SDS011;62885;51.374;6.170;2022-12-07T01:03:47;10.80;;;6.50;;
74371;SDS011;62885;51.374;6.170;2022-12-07T01:06:14;12.73;;;6.63;;
74371;SDS011;62885;51.374;6.170;2022-12-07T01:08:41;12.07;;;6.88;;
74371;SDS011;62885;51.374;6.170;2022-12-07T01:11:07;13.82;;;6.90;;
74371;SDS011;62885;51.374;6.170;2022-12-07T01:13:34;13.57;;;6.75;;
74371;SDS011;62885;51.374;6.170;2022-12-07T01:16:02;12.35;;;7.25;;
74371;SDS011;62885;51.374;6.170;2022-12-07T01:18:30;11.30;;;6.88;;
74371;SDS011;62885;51.374;6.170;2022-12-07T01:20:58;11.20;;;6.97;;
74371;SDS011;62885;51.374;6.170;2022-12-07T01:23:28;15.30;;;6.30;;
74371;SDS011;62885;51.374;6.170;2022-12-07T01:25:57;10.88;;;7.15;;
74371;SDS011;62885;51.374;6.170;2022-12-07T01:28:24;14.77;;;7.53;;
74371;SDS011;62885;51.374;6.170;2022-12-07T01:31:00;11.85;;;7.15;;
74371;SDS011;62885;51.374;6.170;2022-12-07T01:33:28;13.93;;;6.40;;
74371;SDS011;62885;51.374;6.170;2022-12-07T01:35:59;12.93;;;7.00;;
74371;SDS011;62885;51.374;6.170;2022-12-07T01:38:30;21.02;;;7.20;;
74371;SDS011;62885;51.374;6.170;2022-12-07T01:40:56;14.32;;;7.70;;
74371;SDS011;62885;51.374;6.170;2022-12-07T01:43:22;13.25;;;7.80;;
74371;SDS011;62885;51.374;6.170;2022-12-07T01:45:49;15.90;;;7.28;;
74371;SDS011;62885;51.374;6.170;2022-12-07T01:48:15;11.60;;;6.60;;
74371;SDS011;62885;51.374;6.170;2022-12-07T01:50:43;12.32;;;7.13;;
74371;SDS011;62885;51.374;6.170;2022-12-07T01:53:11;11.35;;;7.35;;
74371;SDS011;62885;51.374;6.170;2022-12-07T01:55:39;10.80;;;6.88;;
74371;SDS011;62885;51.374;6.170;2022-12-07T01:58:07;11.85;;;6.60;;
74371;SDS011;62885;51.374;6.170;2022-12-07T02:00:34;12.63;;;7.07;;
74371;SDS011;62885;51.374;6.170;2022-12-07T02:03:01;13.32;;;7.43;;
74371;SDS011;62885;51.374;6.170;2022-12-07T02:05:32;12.90;;;6.82;;
74371;SDS011;62885;51.374;6.170;2022-12-07T02:07:59;13.07;;;7.32;;
74371;SDS011;62885;51.374;6.170;2022-12-07T02:10:26;14.43;;;7.13;;
74371;SDS011;62885;51.374;6.170;2022-12-07T02:12:58;13.40;;;7.13;;
74371;SDS011;62885;51.374;6.170;2022-12-07T02:15:34;13.27;;;7.45;;
74371;SDS011;62885;51.374;6.170;2022-12-07T02:18:11;13.38;;;6.68;;
74371;SDS011;62885;51.374;6.170;2022-12-07T02:20:54;14.50;;;7.50;;
74371;SDS011;62885;51.374;6.170;2022-12-07T02:28:35;11.77;;;6.60;;
74371;SDS011;62885;51.374;6.170;2022-12-07T02:31:12;9.93;;;6.03;;
74371;SDS011;62885;51.374;6.170;2022-12-07T02:33:51;13.85;;;6.93;;
74371;SDS011;62885;51.374;6.170;2022-12-07T02:36:25;12.02;;;6.80;;
74371;SDS011;62885;51.374;6.170;2022-12-07T02:38:59;11.60;;;6.60;;
74371;SDS011;62885;51.374;6.170;2022-12-07T02:44:05;11.50;;;5.93;;
74371;SDS011;62885;51.374;6.170;2022-12-07T02:46:36;10.82;;;5.63;;
74371;SDS011;62885;51.374;6.170;2022-12-07T02:49:05;12.00;;;5.63;;
74371;SDS011;62885;51.374;6.170;2022-12-07T02:51:51;10.23;;;6.28;;
74371;SDS011;62885;51.374;6.170;2022-12-07T02:54:17;12.85;;;6.20;;
74371;SDS011;62885;51.374;6.170;2022-12-07T02:56:46;11.48;;;6.53;;
74371;SDS011;62885;51.374;6.170;2022-12-07T03:02:23;15.38;;;6.20;;
74371;SDS011;62885;51.374;6.170;2022-12-07T03:08:33;10.25;;;5.43;;
74371;SDS011;62885;51.374;6.170;2022-12-07T03:21:21;11.10;;;5.82;;
74371;SDS011;62885;51.374;6.170;2022-12-07T03:23:54;10.80;;;6.03;;
74371;SDS011;62885;51.374;6.170;2022-12-07T03:26:24;8.45;;;5.03;;
74371;SDS011;62885;51.374;6.170;2022-12-07T03:28:55;9.18;;;5.15;;
74371;SDS011;62885;51.374;6.170;2022-12-07T03:31:31;11.57;;;6.25;;
74371;SDS011;62885;51.374;6.170;2022-12-07T03:39:12;9.68;;;4.95;;
74371;SDS011;62885;51.374;6.170;2022-12-07T03:42:02;10.45;;;5.13;;
74371;SDS011;62885;51.374;6.170;2022-12-07T03:44:30;8.93;;;5.07;;
74371;SDS011;62885;51.374;6.170;2022-12-07T03:47:07;11.25;;;4.70;;
74371;SDS011;62885;51.374;6.170;2022-12-07T03:49:45;11.65;;;5.75;;
74371;SDS011;62885;51.374;6.170;2022-12-07T03:54:57;9.88;;;5.35;;
74371;SDS011;62885;51.374;6.170;2022-12-07T03:57:29;9.57;;;5.60;;
74371;SDS011;62885;51.374;6.170;2022-12-07T03:59:57;8.52;;;4.82;;
74371;SDS011;62885;51.374;6.170;2022-12-07T04:02:23;10.50;;;5.10;;
74371;SDS011;62885;51.374;6.170;2022-12-07T04:04:51;13.55;;;5.70;;
74371;SDS011;62885;51.374;6.170;2022-12-07T04:07:16;11.70;;;5.55;;
74371;SDS011;62885;51.374;6.170;2022-12-07T04:09:44;15.07;;;5.80;;
74371;SDS011;62885;51.374;6.170;2022-12-07T04:12:10;8.45;;;5.45;;
74371;SDS011;62885;51.374;6.170;2022-12-07T04:14:35;9.65;;;5.82;;
74371;SDS011;62885;51.374;6.170;2022-12-07T04:17:00;9.95;;;6.38;;
74371;SDS011;62885;51.374;6.170;2022-12-07T04:19:31;11.40;;;6.00;;
74371;SDS011;62885;51.374;6.170;2022-12-07T04:21:59;8.77;;;5.63;;
74371;SDS011;62885;51.374;6.170;2022-12-07T04:24:25;10.45;;;6.28;;
74371;SDS011;62885;51.374;6.170;2022-12-07T04:26:51;8.88;;;5.10;;
74371;SDS011;62885;51.374;6.170;2022-12-07T04:29:17;10.27;;;5.63;;
74371;SDS011;62885;51.374;6.170;2022-12-07T04:31:43;9.77;;;6.13;;
74371;SDS011;62885;51.374;6.170;2022-12-07T04:34:09;9.70;;;4.80;;
74371;SDS011;62885;51.374;6.170;2022-12-07T04:36:35;8.45;;;4.82;;
74371;SDS011;62885;51.374;6.170;2022-12-07T04:39:02;10.10;;;5.18;;
74371;SDS011;62885;51.374;6.170;2022-12-07T04:41:28;9.65;;;4.80;;
74371;SDS011;62885;51.374;6.170;2022-12-07T04:43:58;10.93;;;5.28;;
74371;SDS011;62885;51.374;6.170;2022-12-07T04:46:29;8.65;;;4.20;;
74371;SDS011;62885;51.374;6.170;2022-12-07T04:48:56;9.68;;;5.40;;
74371;SDS011;62885;51.374;6.170;2022-12-07T04:51:22;9.65;;;4.95;;
74371;SDS011;62885;51.374;6.170;2022-12-07T04:53:49;8.93;;;5.65;;
74371;SDS011;62885;51.374;6.170;2022-12-07T04:56:15;9.80;;;5.03;;
74371;SDS011;62885;51.374;6.170;2022-12-07T04:58:42;8.68;;;5.07;;
74371;SDS011;62885;51.374;6.170;2022-12-07T05:01:08;9.13;;;4.97;;
74371;SDS011;62885;51.374;6.170;2022-12-07T05:03:34;10.57;;;5.85;;
74371;SDS011;62885;51.374;6.170;2022-12-07T05:06:00;7.88;;;4.55;;
74371;SDS011;62885;51.374;6.170;2022-12-07T05:08:26;9.98;;;4.75;;
74371;SDS011;62885;51.374;6.170;2022-12-07T05:10:51;7.85;;;4.43;;
74371;SDS011;62885;51.374;6.170;2022-12-07T05:13:16;9.77;;;4.97;;
74371;SDS011;62885;51.374;6.170;2022-12-07T05:15:42;8.07;;;4.35;;
74371;SDS011;62885;51.374;6.170;2022-12-07T05:18:08;8.73;;;5.18;;
74371;SDS011;62885;51.374;6.170;2022-12-07T05:20:34;8.70;;;4.55;;
74371;SDS011;62885;51.374;6.170;2022-12-07T05:22:59;9.45;;;4.75;;
74371;SDS011;62885;51.374;6.170;2022-12-07T05:25:25;9.20;;;4.78;;
74371;SDS011;62885;51.374;6.170;2022-12-07T05:27:50;8.63;;;4.72;;
74371;SDS011;62885;51.374;6.170;2022-12-07T05:30:16;8.95;;;4.40;;
74371;SDS011;62885;51.374;6.170;2022-12-07T05:32:41;9.68;;;4.53;;
74371;SDS011;62885;51.374;6.170;2022-12-07T05:35:07;8.50;;;4.25;;
74371;SDS011;62885;51.374;6.170;2022-12-07T05:37:32;8.20;;;4.63;;
74371;SDS011;62885;51.374;6.170;2022-12-07T05:39:58;7.70;;;3.85;;
74371;SDS011;62885;51.374;6.170;2022-12-07T05:42:23;10.38;;;4.05;;
74371;SDS011;62885;51.374;6.170;2022-12-07T05:44:48;7.65;;;3.90;;
74371;SDS011;62885;51.374;6.170;2022-12-07T05:47:14;9.52;;;4.05;;
74371;SDS011;62885;51.374;6.170;2022-12-07T05:49:40;7.78;;;4.15;;
74371;SDS011;62885;51.374;6.170;2022-12-07T05:52:05;8.05;;;4.57;;
74371;SDS011;62885;51.374;6.170;2022-12-07T05:54:31;8.85;;;3.50;;
74371;SDS011;62885;51.374;6.170;2022-12-07T05:56:57;10.00;;;4.03;;
74371;SDS011;62885;51.374;6.170;2022-12-07T05:59:23;7.88;;;4.20;;
74371;SDS011;62885;51.374;6.170;2022-12-07T06:02:00;10.18;;;3.78;;
74371;SDS011;62885;51.374;6.170;2022-12-07T06:04:32;7.63;;;2.65;;
74371;SDS011;62885;51.374;6.170;2022-12-07T06:07:01;9.13;;;4.00;;
74371;SDS011;62885;51.374;6.170;2022-12-07T06:09:27;6.93;;;3.03;;
74371;SDS011;62885;51.374;6.170;2022-12-07T06:11:54;6.38;;;3.00;;
74371;SDS011;62885;51.374;6.170;2022-12-07T06:14:39;7.75;;;3.35;;
74371;SDS011;62885;51.374;6.170;2022-12-07T06:17:04;9.45;;;3.10;;
74371;SDS011;62885;51.374;6.170;2022-12-07T06:19:30;7.63;;;3.78;;
74371;SDS011;62885;51.374;6.170;2022-12-07T06:21:56;9.30;;;3.35;;
74371;SDS011;62885;51.374;6.170;2022-12-07T06:24:21;8.57;;;3.58;;
74371;SDS011;62885;51.374;6.170;2022-12-07T06:26:47;7.82;;;3.70;;
74371;SDS011;62885;51.374;6.170;2022-12-07T06:29:13;10.48;;;3.78;;
74371;SDS011;62885;51.374;6.170;2022-12-07T06:31:38;9.77;;;4.00;;
74371;SDS011;62885;51.374;6.170;2022-12-07T06:34:05;6.10;;;3.35;;
74371;SDS011;62885;51.374;6.170;2022-12-07T06:36:37;7.10;;;3.88;;
74371;SDS011;62885;51.374;6.170;2022-12-07T06:39:02;7.13;;;3.70;;
74371;SDS011;62885;51.374;6.170;2022-12-07T06:41:28;8.40;;;3.95;;
74371;SDS011;62885;51.374;6.170;2022-12-07T06:43:53;8.52;;;3.95;;
74371;SDS011;62885;51.374;6.170;2022-12-07T06:46:19;10.45;;;4.15;;
74371;SDS011;62885;51.374;6.170;2022-12-07T06:48:44;7.78;;;3.80;;
74371;SDS011;62885;51.374;6.170;2022-12-07T06:51:10;8.63;;;3.97;;
74371;SDS011;62885;51.374;6.170;2022-12-07T06:53:35;7.45;;;4.15;;
74371;SDS011;62885;51.374;6.170;2022-12-07T06:56:02;9.93;;;3.88;;
74371;SDS011;62885;51.374;6.170;2022-12-07T06:58:28;13.13;;;5.05;;
74371;SDS011;62885;51.374;6.170;2022-12-07T07:00:54;9.43;;;4.28;;
74371;SDS011;62885;51.374;6.170;2022-12-07T07:03:19;9.95;;;4.63;;
74371;SDS011;62885;51.374;6.170;2022-12-07T07:05:45;6.47;;;3.60;;
74371;SDS011;62885;51.374;6.170;2022-12-07T07:08:10;9.38;;;4.50;;
74371;SDS011;62885;51.374;6.170;2022-12-07T07:10:36;7.45;;;4.20;;
74371;SDS011;62885;51.374;6.170;2022-12-07T07:13:02;6.57;;;3.60;;
74371;SDS011;62885;51.374;6.170;2022-12-07T07:15:28;12.75;;;4.90;;
74371;SDS011;62885;51.374;6.170;2022-12-07T07:17:54;12.07;;;4.38;;
74371;SDS011;62885;51.374;6.170;2022-12-07T07:20:21;8.52;;;4.78;;
74371;SDS011;62885;51.374;6.170;2022-12-07T07:22:47;9.00;;;4.05;;
74371;SDS011;62885;51.374;6.170;2022-12-07T07:25:13;7.93;;;3.83;;
74371;SDS011;62885;51.374;6.170;2022-12-07T07:27:38;7.97;;;3.90;;
74371;SDS011;62885;51.374;6.170;2022-12-07T07:30:04;9.60;;;4.60;;
74371;SDS011;62885;51.374;6.170;2022-12-07T07:32:30;10.82;;;4.22;;
74371;SDS011;62885;51.374;6.170;2022-12-07T07:34:55;9.65;;;4.60;;
74371;SDS011;62885;51.374;6.170;2022-12-07T07:37:21;12.13;;;6.32;;
74371;SDS011;62885;51.374;6.170;2022-12-07T07:39:46;14.10;;;5.65;;
74371;SDS011;62885;51.374;6.170;2022-12-07T07:42:11;10.35;;;4.97;;
74371;SDS011;62885;51.374;6.170;2022-12-07T07:44:37;7.82;;;4.15;;
74371;SDS011;62885;51.374;6.170;2022-12-07T07:47:02;8.48;;;3.92;;
74371;SDS011;62885;51.374;6.170;2022-12-07T07:49:28;7.22;;;4.03;;
74371;SDS011;62885;51.374;6.170;2022-12-07T07:51:53;10.02;;;4.32;;
74371;SDS011;62885;51.374;6.170;2022-12-07T07:54:18;8.50;;;4.18;;
74371;SDS011;62885;51.374;6.170;2022-12-07T07:56:44;7.72;;;3.63;;
74371;SDS011;62885;51.374;6.170;2022-12-07T07:59:09;7.78;;;4.45;;
74371;SDS011;62885;51.374;6.170;2022-12-07T08:01:34;8.32;;;4.00;;
74371;SDS011;62885;51.374;6.170;2022-12-07T08:04:00;6.40;;;3.55;;
74371;SDS011;62885;51.374;6.170;2022-12-07T08:06:25;9.20;;;3.80;;
74371;SDS011;62885;51.374;6.170;2022-12-07T08:08:51;6.85;;;3.63;;
74371;SDS011;62885;51.374;6.170;2022-12-07T08:11:17;7.63;;;3.63;;
74371;SDS011;62885;51.374;6.170;2022-12-07T08:13:44;7.90;;;4.25;;
74371;SDS011;62885;51.374;6.170;2022-12-07T08:16:10;8.77;;;5.32;;
74371;SDS011;62885;51.374;6.170;2022-12-07T08:18:36;11.07;;;5.38;;
74371;SDS011;62885;51.374;6.170;2022-12-07T08:21:06;14.07;;;8.70;;
74371;SDS011;62885;51.374;6.170;2022-12-07T08:23:32;15.32;;;10.07;;
74371;SDS011;62885;51.374;6.170;2022-12-07T08:26:06;17.08;;;11.13;;
74371;SDS011;62885;51.374;6.170;2022-12-07T08:28:35;19.73;;;11.40;;
74371;SDS011;62885;51.374;6.170;2022-12-07T08:31:01;24.00;;;12.60;;
74371;SDS011;62885;51.374;6.170;2022-12-07T08:33:28;19.17;;;11.38;;
74371;SDS011;62885;51.374;6.170;2022-12-07T08:35:54;19.65;;;11.57;;
74371;SDS011;62885;51.374;6.170;2022-12-07T08:38:19;16.77;;;10.50;;
74371;SDS011;62885;51.374;6.170;2022-12-07T08:40:53;15.07;;;10.20;;
74371;SDS011;62885;51.374;6.170;2022-12-07T08:43:19;12.93;;;8.52;;
74371;SDS011;62885;51.374;6.170;2022-12-07T08:45:44;12.15;;;7.25;;
74371;SDS011;62885;51.374;6.170;2022-12-07T08:48:11;12.52;;;6.55;;
74371;SDS011;62885;51.374;6.170;2022-12-07T08:50:39;15.45;;;6.80;;
74371;SDS011;62885;51.374;6.170;2022-12-07T08:53:05;9.43;;;5.35;;
74371;SDS011;62885;51.374;6.170;2022-12-07T08:55:31;11.73;;;4.88;;
74371;SDS011;62885;51.374;6.170;2022-12-07T08:57:58;11.00;;;4.40;;
74371;SDS011;62885;51.374;6.170;2022-12-07T09:00:27;8.05;;;4.22;;
74371;SDS011;62885;51.374;6.170;2022-12-07T09:02:53;9.00;;;4.07;;
74371;SDS011;62885;51.374;6.170;2022-12-07T09:05:18;6.40;;;3.45;;
74371;SDS011;62885;51.374;6.170;2022-12-07T09:07:44;7.50;;;3.80;;
74371;SDS011;62885;51.374;6.170;2022-12-07T09:10:12;5.95;;;3.42;;
74371;SDS011;62885;51.374;6.170;2022-12-07T09:12:38;6.30;;;3.65;;
74371;SDS011;62885;51.374;6.170;2022-12-07T09:15:03;9.32;;;4.13;;
74371;SDS011;62885;51.374;6.170;2022-12-07T09:17:31;7.60;;;3.90;;
74371;SDS011;62885;51.374;6.170;2022-12-07T09:19:58;8.05;;;3.80;;
74371;SDS011;62885;51.374;6.170;2022-12-07T09:22:27;8.32;;;3.65;;
74371;SDS011;62885;51.374;6.170;2022-12-07T09:24:54;8.93;;;4.38;;
74371;SDS011;62885;51.374;6.170;2022-12-07T09:27:19;11.13;;;3.92;;
74371;SDS011;62885;51.374;6.170;2022-12-07T09:29:45;14.85;;;4.35;;
74371;SDS011;62885;51.374;6.170;2022-12-07T09:32:10;8.60;;;3.67;;
74371;SDS011;62885;51.374;6.170;2022-12-07T09:34:36;7.88;;;3.63;;
74371;SDS011;62885;51.374;6.170;2022-12-07T09:37:01;7.38;;;3.65;;
74371;SDS011;62885;51.374;6.170;2022-12-07T09:39:28;6.85;;;3.40;;
74371;SDS011;62885;51.374;6.170;2022-12-07T09:41:53;6.75;;;3.38;;
74371;SDS011;62885;51.374;6.170;2022-12-07T09:44:23;8.77;;;4.00;;
74371;SDS011;62885;51.374;6.170;2022-12-07T09:46:51;8.07;;;4.05;;
74371;SDS011;62885;51.374;6.170;2022-12-07T09:49:19;7.28;;;3.38;;
74371;SDS011;62885;51.374;6.170;2022-12-07T09:51:47;9.05;;;4.05;;
74371;SDS011;62885;51.374;6.170;2022-12-07T09:54:24;7.85;;;3.35;;
74371;SDS011;62885;51.374;6.170;2022-12-07T09:56:49;7.18;;;3.35;;
74371;SDS011;62885;51.374;6.170;2022-12-07T09:59:17;7.60;;;4.13;;
74371;SDS011;62885;51.374;6.170;2022-12-07T10:01:44;11.20;;;3.95;;
74371;SDS011;62885;51.374;6.170;2022-12-07T10:06:40;9.73;;;4.35;;
74371;SDS011;62885;51.374;6.170;2022-12-07T10:09:10;9.27;;;3.80;;
74371;SDS011;62885;51.374;6.170;2022-12-07T10:12:01;6.65;;;4.00;;
74371;SDS011;62885;51.374;6.170;2022-12-07T10:14:29;11.43;;;3.92;;
74371;SDS011;62885;51.374;6.170;2022-12-07T10:16:55;8.73;;;4.07;;
74371;SDS011;62885;51.374;6.170;2022-12-07T10:19:28;9.73;;;5.00;;
74371;SDS011;62885;51.374;6.170;2022-12-07T10:24:43;9.98;;;3.80;;
74371;SDS011;62885;51.374;6.170;2022-12-07T10:27:21;8.15;;;3.90;;
74371;SDS011;62885;51.374;6.170;2022-12-07T10:29:51;8.00;;;3.25;;
74371;SDS011;62885;51.374;6.170;2022-12-07T10:34:43;8.30;;;3.70;;
74371;SDS011;62885;51.374;6.170;2022-12-07T10:42:49;5.90;;;3.47;;
74371;SDS011;62885;51.374;6.170;2022-12-07T10:45:25;7.55;;;3.90;;
74371;SDS011;62885;51.374;6.170;2022-12-07T10:51:11;9.13;;;3.75;;
74371;SDS011;62885;51.374;6.170;2022-12-07T10:53:42;9.68;;;4.03;;
74371;SDS011;62885;51.374;6.170;2022-12-07T10:58:52;8.98;;;3.88;;
74371;SDS011;62885;51.374;6.170;2022-12-07T11:04:12;8.65;;;3.67;;
74371;SDS011;62885;51.374;6.170;2022-12-07T11:12:06;9.68;;;3.78;;
74371;SDS011;62885;51.374;6.170;2022-12-07T11:14:44;7.10;;;3.30;;
74371;SDS011;62885;51.374;6.170;2022-12-07T11:17:29;9.05;;;4.00;;
74371;SDS011;62885;51.374;6.170;2022-12-07T11:32:17;6.43;;;3.53;;
74371;SDS011;62885;51.374;6.170;2022-12-07T11:35:10;6.82;;;3.25;;
74371;SDS011;62885;51.374;6.170;2022-12-07T11:37:44;10.13;;;3.13;;
74371;SDS011;62885;51.374;6.170;2022-12-07T11:40:17;14.65;;;3.88;;
74371;SDS011;62885;51.374;6.170;2022-12-07T11:42:52;7.32;;;3.28;;
74371;SDS011;62885;51.374;6.170;2022-12-07T11:45:26;9.00;;;2.95;;
74371;SDS011;62885;51.374;6.170;2022-12-07T11:47:54;9.25;;;3.83;;
74371;SDS011;62885;51.374;6.170;2022-12-07T12:00:55;7.60;;;2.90;;
74371;SDS011;62885;51.374;6.170;2022-12-07T12:03:34;6.55;;;2.40;;
74371;SDS011;62885;51.374;6.170;2022-12-07T12:06:05;5.25;;;2.20;;
74371;SDS011;62885;51.374;6.170;2022-12-07T12:08:32;5.68;;;2.42;;
74371;SDS011;62885;51.374;6.170;2022-12-07T12:14:23;4.82;;;2.08;;
74371;SDS011;62885;51.374;6.170;2022-12-07T12:17:26;4.40;;;1.75;;
74371;SDS011;62885;51.374;6.170;2022-12-07T12:22:33;6.57;;;1.60;;
74371;SDS011;62885;51.374;6.170;2022-12-07T12:25:03;5.22;;;2.13;;
74371;SDS011;62885;51.374;6.170;2022-12-07T12:27:32;8.07;;;2.28;;
74371;SDS011;62885;51.374;6.170;2022-12-07T12:30:01;6.72;;;2.40;;
74371;SDS011;62885;51.374;6.170;2022-12-07T12:32:38;5.75;;;1.88;;
74371;SDS011;62885;51.374;6.170;2022-12-07T12:37:46;5.45;;;2.17;;
74371;SDS011;62885;51.374;6.170;2022-12-07T12:48:02;4.68;;;2.20;;
74371;SDS011;62885;51.374;6.170;2022-12-07T12:50:37;6.10;;;2.80;;
74371;SDS011;62885;51.374;6.170;2022-12-07T12:53:14;9.23;;;2.92;;
74371;SDS011;62885;51.374;6.170;2022-12-07T12:58:49;5.45;;;2.58;;
74371;SDS011;62885;51.374;6.170;2022-12-07T13:07:47;9.23;;;2.92;;
74371;SDS011;62885;51.374;6.170;2022-12-07T13:12:58;8.40;;;3.50;;
74371;SDS011;62885;51.374;6.170;2022-12-07T13:20:54;9.25;;;2.85;;
74371;SDS011;62885;51.374;6.170;2022-12-07T13:23:21;4.32;;;2.50;;
74371;SDS011;62885;51.374;6.170;2022-12-07T13:25:59;6.85;;;2.30;;
74371;SDS011;62885;51.374;6.170;2022-12-07T13:28:35;5.05;;;2.17;;
74371;SDS011;62885;51.374;6.170;2022-12-07T13:33:53;4.47;;;1.75;;
74371;SDS011;62885;51.374;6.170;2022-12-07T13:38:49;6.72;;;2.13;;
74371;SDS011;62885;51.374;6.170;2022-12-07T13:41:28;9.35;;;2.08;;
74371;SDS011;62885;51.374;6.170;2022-12-07T13:44:02;3.25;;;2.13;;
74371;SDS011;62885;51.374;6.170;2022-12-07T13:49:18;6.38;;;1.45;;
74371;SDS011;62885;51.374;6.170;2022-12-07T13:51:51;4.43;;;1.52;;
74371;SDS011;62885;51.374;6.170;2022-12-07T13:54:18;4.75;;;1.33;;
74371;SDS011;62885;51.374;6.170;2022-12-07T13:56:47;3.40;;;1.60;;
74371;SDS011;62885;51.374;6.170;2022-12-07T13:59:22;4.70;;;1.45;;
74371;SDS011;62885;51.374;6.170;2022-12-07T14:01:51;5.53;;;1.65;;
74371;SDS011;62885;51.374;6.170;2022-12-07T14:04:18;9.45;;;1.92;;
74371;SDS011;62885;51.374;6.170;2022-12-07T14:06:48;6.22;;;1.60;;
74371;SDS011;62885;51.374;6.170;2022-12-07T14:09:19;6.03;;;1.98;;
74371;SDS011;62885;51.374;6.170;2022-12-07T14:11:47;4.60;;;1.48;;
74371;SDS011;62885;51.374;6.170;2022-12-07T14:14:16;5.65;;;1.70;;
74371;SDS011;62885;51.374;6.170;2022-12-07T14:16:54;7.05;;;1.77;;
74371;SDS011;62885;51.374;6.170;2022-12-07T14:22:33;4.80;;;1.73;;
74371;SDS011;62885;51.374;6.170;2022-12-07T14:27:32;3.38;;;1.40;;
74371;SDS011;62885;51.374;6.170;2022-12-07T14:29:59;7.65;;;1.55;;
74371;SDS011;62885;51.374;6.170;2022-12-07T14:32:27;2.95;;;1.50;;
74371;SDS011;62885;51.374;6.170;2022-12-07T14:35:08;3.75;;;1.40;;
74371;SDS011;62885;51.374;6.170;2022-12-07T14:40:02;4.65;;;1.33;;
74371;SDS011;62885;51.374;6.170;2022-12-07T14:42:29;9.05;;;1.52;;
74371;SDS011;62885;51.374;6.170;2022-12-07T14:44:56;7.10;;;1.65;;
74371;SDS011;62885;51.374;6.170;2022-12-07T14:47:22;4.75;;;1.75;;
74371;SDS011;62885;51.374;6.170;2022-12-07T14:49:48;4.63;;;1.40;;
74371;SDS011;62885;51.374;6.170;2022-12-07T14:52:18;3.53;;;1.58;;
74371;SDS011;62885;51.374;6.170;2022-12-07T14:54:46;6.13;;;1.60;;
74371;SDS011;62885;51.374;6.170;2022-12-07T14:57:12;4.25;;;1.60;;
74371;SDS011;62885;51.374;6.170;2022-12-07T14:59:38;4.03;;;1.38;;
74371;SDS011;62885;51.374;6.170;2022-12-07T15:02:03;3.63;;;1.27;;
74371;SDS011;62885;51.374;6.170;2022-12-07T15:04:30;5.30;;;1.75;;
74371;SDS011;62885;51.374;6.170;2022-12-07T15:06:59;5.97;;;1.92;;
74371;SDS011;62885;51.374;6.170;2022-12-07T15:09:27;5.68;;;1.45;;
74371;SDS011;62885;51.374;6.170;2022-12-07T15:11:52;6.35;;;1.98;;
74371;SDS011;62885;51.374;6.170;2022-12-07T15:14:18;8.77;;;2.10;;
74371;SDS011;62885;51.374;6.170;2022-12-07T15:16:43;5.63;;;1.83;;
74371;SDS011;62885;51.374;6.170;2022-12-07T15:19:16;3.85;;;1.98;;
74371;SDS011;62885;51.374;6.170;2022-12-07T15:21:44;4.68;;;2.10;;
74371;SDS011;62885;51.374;6.170;2022-12-07T15:24:10;5.10;;;1.90;;
74371;SDS011;62885;51.374;6.170;2022-12-07T15:26:37;4.07;;;1.85;;
74371;SDS011;62885;51.374;6.170;2022-12-07T15:29:03;6.15;;;2.55;;
74371;SDS011;62885;51.374;6.170;2022-12-07T15:31:28;6.40;;;2.25;;
74371;SDS011;62885;51.374;6.170;2022-12-07T15:33:54;5.55;;;2.15;;
74371;SDS011;62885;51.374;6.170;2022-12-07T15:36:20;5.30;;;2.13;;
74371;SDS011;62885;51.374;6.170;2022-12-07T15:38:48;7.03;;;2.35;;
74371;SDS011;62885;51.374;6.170;2022-12-07T15:41:13;6.10;;;2.78;;
74371;SDS011;62885;51.374;6.170;2022-12-07T15:43:39;5.85;;;2.25;;
74371;SDS011;62885;51.374;6.170;2022-12-07T15:46:22;8.30;;;2.75;;
74371;SDS011;62885;51.374;6.170;2022-12-07T15:48:48;5.45;;;2.28;;
74371;SDS011;62885;51.374;6.170;2022-12-07T15:51:13;5.03;;;2.15;;
74371;SDS011;62885;51.374;6.170;2022-12-07T15:53:39;8.00;;;2.65;;
74371;SDS011;62885;51.374;6.170;2022-12-07T15:56:08;7.38;;;2.60;;
74371;SDS011;62885;51.374;6.170;2022-12-07T15:58:33;4.80;;;2.47;;
74371;SDS011;62885;51.374;6.170;2022-12-07T16:00:59;11.73;;;2.58;;
74371;SDS011;62885;51.374;6.170;2022-12-07T16:03:26;5.80;;;2.35;;
74371;SDS011;62885;51.374;6.170;2022-12-07T16:05:52;5.63;;;2.55;;
74371;SDS011;62885;51.374;6.170;2022-12-07T16:08:18;6.72;;;2.38;;
74371;SDS011;62885;51.374;6.170;2022-12-07T16:10:44;6.57;;;2.15;;
74371;SDS011;62885;51.374;6.170;2022-12-07T16:13:10;3.67;;;1.55;;
74371;SDS011;62885;51.374;6.170;2022-12-07T16:15:42;4.50;;;1.30;;
74371;SDS011;62885;51.374;6.170;2022-12-07T16:18:08;3.45;;;2.15;;
74371;SDS011;62885;51.374;6.170;2022-12-07T16:20:34;3.72;;;1.15;;
74371;SDS011;62885;51.374;6.170;2022-12-07T16:22:59;4.13;;;1.30;;
74371;SDS011;62885;51.374;6.170;2022-12-07T16:25:25;2.65;;;1.00;;
74371;SDS011;62885;51.374;6.170;2022-12-07T16:27:51;1.60;;;1.05;;
74371;SDS011;62885;51.374;6.170;2022-12-07T16:30:17;2.47;;;1.17;;
74371;SDS011;62885;51.374;6.170;2022-12-07T16:32:43;1.67;;;0.90;;
74371;SDS011;62885;51.374;6.170;2022-12-07T16:35:08;1.80;;;0.90;;
74371;SDS011;62885;51.374;6.170;2022-12-07T16:37:34;6.30;;;1.17;;
74371;SDS011;62885;51.374;6.170;2022-12-07T16:39:59;3.63;;;1.13;;
74371;SDS011;62885;51.374;6.170;2022-12-07T16:42:25;4.72;;;1.17;;
74371;SDS011;62885;51.374;6.170;2022-12-07T16:44:51;3.15;;;1.50;;
74371;SDS011;62885;51.374;6.170;2022-12-07T16:47:17;6.18;;;1.48;;
74371;SDS011;62885;51.374;6.170;2022-12-07T16:49:42;4.72;;;1.50;;
74371;SDS011;62885;51.374;6.170;2022-12-07T16:52:08;4.38;;;1.33;;
74371;SDS011;62885;51.374;6.170;2022-12-07T16:54:34;5.00;;;1.60;;
74371;SDS011;62885;51.374;6.170;2022-12-07T16:57:00;4.60;;;1.58;;
74371;SDS011;62885;51.374;6.170;2022-12-07T16:59:26;3.97;;;1.60;;
74371;SDS011;62885;51.374;6.170;2022-12-07T17:01:51;6.07;;;1.70;;